Time;durP1;ratioP1;P1;durP2;ratioP2;P2;SDS_P1;SDS_P2;PMS_P1;PMS_P2;Temp;Humidity;BMP_temperature;BMP_pressure;BME280_temperature;BME280_humidity;BME280_pressure;Samples;Min_cycle;Max_cycle;Signal;HPM_P1;HPM_P2
2022/01/09 00:00:29;;;;;;;7.35;6.32;;;5.30;99.90;;;;;;4973482;28;20082;-62
2022/01/09 00:02:55;;;;;;;7.05;6.18;;;5.30;99.90;;;;;;4962977;28;20046;-61
2022/01/09 00:05:21;;;;;;;7.47;6.68;;;5.30;99.90;;;;;;4988694;28;20133;-61
2022/01/09 00:07:48;;;;;;;7.07;6.38;;;5.30;99.90;;;;;;4938298;28;20048;-62
2022/01/09 00:10:14;;;;;;;7.97;7.18;;;5.40;99.90;;;;;;4993305;28;20128;-61
2022/01/09 00:12:40;;;;;;;6.55;5.85;;;5.30;99.90;;;;;;4961729;28;20046;-61
2022/01/09 00:15:07;;;;;;;5.82;5.22;;;5.30;99.90;;;;;;4977728;28;20038;-61
2022/01/09 00:17:33;;;;;;;6.80;5.60;;;5.40;99.90;;;;;;4972853;28;20046;-61
2022/01/09 00:19:58;;;;;;;6.95;5.63;;;5.40;99.90;;;;;;4977517;28;20054;-61
2022/01/09 00:23:06;;;;;;;6.18;5.45;;;5.50;99.90;;;;;;4966853;28;20046;-61
2022/01/09 00:25:15;;;;;;;7.07;6.18;;;5.50;99.90;;;;;;4969446;28;20053;-61
2022/01/09 00:27:41;;;;;;;5.57;4.63;;;5.60;99.90;;;;;;4991326;28;20056;-61
2022/01/09 00:30:09;;;;;;;6.60;5.90;;;5.50;99.90;;;;;;4968796;28;20038;-60
2022/01/09 00:32:36;;;;;;;7.22;5.70;;;5.50;99.90;;;;;;4952849;28;20046;-61
2022/01/09 00:35:03;;;;;;;7.32;6.03;;;5.50;99.90;;;;;;4979324;28;20050;-61
2022/01/09 00:37:29;;;;;;;7.78;6.10;;;5.50;99.90;;;;;;4973310;28;20378;-62
2022/01/09 00:39:54;;;;;;;7.10;6.40;;;5.50;99.90;;;;;;4992898;28;20425;-61
2022/01/09 00:42:21;;;;;;;6.30;5.28;;;5.60;99.90;;;;;;4981666;28;20121;-62
2022/01/09 00:44:46;;;;;;;7.50;5.93;;;5.60;99.90;;;;;;4954228;28;20049;-61
2022/01/09 00:47:12;;;;;;;5.57;4.97;;;5.60;99.90;;;;;;4988282;28;20042;-61
2022/01/09 00:49:38;;;;;;;7.43;6.10;;;5.60;99.90;;;;;;4985612;28;20042;-62
2022/01/09 00:52:04;;;;;;;6.38;5.70;;;5.60;99.90;;;;;;4969231;28;20048;-60
2022/01/09 00:54:30;;;;;;;7.07;6.18;;;5.60;99.90;;;;;;4986864;28;20034;-61
2022/01/09 00:56:55;;;;;;;5.80;5.20;;;5.60;99.90;;;;;;4982037;28;20053;-61
2022/01/09 00:59:21;;;;;;;5.93;4.60;;;5.60;99.90;;;;;;4973026;28;20113;-61
2022/01/09 01:01:47;;;;;;;6.32;5.72;;;5.50;99.90;;;;;;4982718;28;20561;-61
2022/01/09 01:04:13;;;;;;;8.52;7.03;;;5.50;99.90;;;;;;4970417;28;20137;-61
2022/01/09 01:06:38;;;;;;;7.47;6.07;;;5.50;99.90;;;;;;4974857;28;20122;-61
2022/01/09 01:09:04;;;;;;;7.43;6.30;;;5.50;99.90;;;;;;4982211;28;20034;-61
2022/01/09 01:11:30;;;;;;;8.63;6.75;;;5.50;99.90;;;;;;4969573;28;20050;-62
2022/01/09 01:13:56;;;;;;;9.77;7.05;;;5.50;99.90;;;;;;4991268;28;20041;-61
2022/01/09 01:16:22;;;;;;;10.95;7.43;;;5.50;99.90;;;;;;4971377;28;20042;-61
2022/01/09 01:18:47;;;;;;;10.18;7.85;;;5.60;99.90;;;;;;4974405;28;20424;-61
2022/01/09 01:21:13;;;;;;;9.45;7.38;;;5.60;99.90;;;;;;4988301;28;20054;-61
2022/01/09 01:23:40;;;;;;;13.07;8.30;;;5.60;99.90;;;;;;4970794;28;20038;-62
2022/01/09 01:26:06;;;;;;;10.77;6.68;;;5.60;99.90;;;;;;4977892;28;20046;-61
2022/01/09 01:28:32;;;;;;;15.70;7.53;;;5.60;99.90;;;;;;4970800;28;20563;-61
2022/01/09 01:30:58;;;;;;;9.02;6.53;;;5.60;99.90;;;;;;4967463;28;20046;-62
2022/01/09 01:33:24;;;;;;;12.82;7.05;;;5.60;99.90;;;;;;4971811;28;20069;-61
2022/01/09 01:35:50;;;;;;;16.42;7.25;;;5.70;99.90;;;;;;4952680;28;20065;-62
2022/01/09 01:38:16;;;;;;;11.77;6.38;;;5.70;99.90;;;;;;4969339;28;20058;-62
2022/01/09 01:40:42;;;;;;;15.90;6.03;;;5.70;99.90;;;;;;4970579;28;20076;-60
2022/01/09 01:43:09;;;;;;;14.93;6.70;;;5.70;99.90;;;;;;4980725;28;20081;-61
2022/01/09 01:45:35;;;;;;;21.08;5.97;;;5.80;99.90;;;;;;4976159;28;20042;-61
2022/01/09 01:48:06;;;;;;;31.20;6.00;;;5.80;99.90;;;;;;4990144;28;20042;-62
2022/01/09 01:50:38;;;;;;;30.95;6.30;;;5.80;99.90;;;;;;4990288;28;20045;-61
2022/01/09 01:53:08;;;;;;;27.45;5.10;;;5.90;99.90;;;;;;4969290;28;20486;-61
2022/01/09 01:55:37;;;;;;;33.95;6.13;;;5.90;99.90;;;;;;4956256;28;20171;-61
2022/01/09 01:58:04;;;;;;;34.25;5.88;;;6.00;99.90;;;;;;4979383;28;20042;-61
2022/01/09 02:00:30;;;;;;;34.08;5.65;;;6.00;99.90;;;;;;4972071;28;20591;-61
2022/01/09 02:02:55;;;;;;;25.58;5.35;;;6.00;99.90;;;;;;4970599;28;20045;-60
2022/01/09 02:05:21;;;;;;;29.75;5.85;;;6.10;99.90;;;;;;4971581;28;20038;-62
2022/01/09 02:07:49;;;;;;;36.05;6.07;;;6.10;99.90;;;;;;4978868;28;20171;-61
2022/01/09 02:10:15;;;;;;;33.65;5.53;;;6.10;99.90;;;;;;4946173;28;20055;-61
2022/01/09 02:12:40;;;;;;;36.60;6.57;;;6.20;99.90;;;;;;4969547;28;20057;-62
2022/01/09 02:15:32;;;;;;;31.35;7.13;;;6.20;99.90;;;;;;4966438;28;21570;-61
2022/01/09 02:17:59;;;;;;;40.83;7.15;;;6.20;99.90;;;;;;4984857;28;20667;-62
2022/01/09 02:20:24;;;;;;;38.00;6.18;;;6.20;99.90;;;;;;4960627;28;20054;-62
2022/01/09 02:22:50;;;;;;;39.72;6.60;;;6.20;99.90;;;;;;4968449;28;20050;-62
2022/01/09 02:25:16;;;;;;;37.13;6.32;;;6.20;99.90;;;;;;4990492;28;20050;-62
2022/01/09 02:27:42;;;;;;;42.60;7.18;;;6.30;99.90;;;;;;4975936;28;20633;-61
2022/01/09 02:30:09;;;;;;;37.25;5.80;;;6.30;99.90;;;;;;4970162;28;20128;-62
2022/01/09 02:32:34;;;;;;;48.25;7.45;;;6.30;99.90;;;;;;4971339;28;20038;-61
2022/01/09 02:35:00;;;;;;;42.88;8.32;;;6.30;99.90;;;;;;4970211;28;20054;-62
2022/01/09 02:37:26;;;;;;;49.25;7.53;;;6.40;99.90;;;;;;4984601;28;20039;-63
2022/01/09 02:39:53;;;;;;;42.85;8.27;;;6.40;99.90;;;;;;4972561;28;20066;-62
2022/01/09 02:42:24;;;;;;;47.75;8.52;;;6.50;99.90;;;;;;4968568;28;20516;-63
2022/01/09 02:44:50;;;;;;;34.17;7.65;;;6.50;99.90;;;;;;4966374;28;20105;-63
2022/01/09 02:47:17;;;;;;;48.25;7.80;;;6.50;99.90;;;;;;4983604;28;20050;-62
2022/01/09 02:49:47;;;;;;;63.75;9.55;;;6.50;99.90;;;;;;4956076;28;20037;-62
2022/01/09 02:52:28;;;;;;;47.38;8.45;;;6.60;99.90;;;;;;4974325;28;20702;-62
2022/01/09 02:55:12;;;;;;;45.40;8.02;;;6.60;99.90;;;;;;4968999;28;20567;-62
2022/01/09 02:57:39;;;;;;;43.75;8.45;;;6.60;99.90;;;;;;4971084;28;20050;-62
2022/01/09 03:00:09;;;;;;;44.22;8.20;;;6.60;99.90;;;;;;4968122;28;20033;-62
2022/01/09 03:02:35;;;;;;;42.67;7.75;;;6.70;99.90;;;;;;4954249;28;22224;-62
2022/01/09 03:05:01;;;;;;;43.33;7.35;;;6.70;99.90;;;;;;4968976;28;20046;-62
2022/01/09 03:07:26;;;;;;;43.40;6.60;;;6.70;99.90;;;;;;4970276;28;20042;-63
2022/01/09 03:09:52;;;;;;;41.60;6.53;;;6.70;99.90;;;;;;4968402;28;20628;-63
2022/01/09 03:12:18;;;;;;;47.28;7.68;;;6.70;99.90;;;;;;4965365;28;20142;-63
2022/01/09 03:14:44;;;;;;;38.50;7.13;;;6.70;99.90;;;;;;4969109;28;20485;-63
2022/01/09 03:17:10;;;;;;;32.45;6.68;;;6.70;99.90;;;;;;4982361;28;20035;-63
2022/01/09 03:19:35;;;;;;;44.35;6.45;;;6.70;99.90;;;;;;4973769;28;20531;-63
2022/01/09 03:22:01;;;;;;;34.20;5.90;;;6.70;99.90;;;;;;4982672;28;20062;-62
2022/01/09 03:24:27;;;;;;;44.30;6.43;;;6.70;99.90;;;;;;4990958;28;20058;-62
2022/01/09 03:26:52;;;;;;;39.80;7.47;;;6.80;99.90;;;;;;4973750;28;20104;-62
2022/01/09 03:29:18;;;;;;;41.97;6.07;;;6.70;99.90;;;;;;4957682;28;20428;-62
2022/01/09 03:31:44;;;;;;;37.72;6.05;;;6.70;99.90;;;;;;4961778;28;20500;-63
2022/01/09 03:34:09;;;;;;;38.28;7.00;;;6.70;99.90;;;;;;4969336;28;20063;-62
2022/01/09 03:36:35;;;;;;;30.55;5.53;;;6.70;99.90;;;;;;4983917;28;20445;-62
2022/01/09 03:39:01;;;;;;;39.83;6.53;;;6.70;99.90;;;;;;4979540;28;20062;-62
2022/01/09 03:41:27;;;;;;;37.70;5.30;;;6.70;99.90;;;;;;4966847;28;20611;-62
2022/01/09 03:43:52;;;;;;;28.10;5.80;;;6.70;99.90;;;;;;4988295;28;20088;-63
2022/01/09 03:46:18;;;;;;;49.53;6.80;;;6.70;99.90;;;;;;4963634;28;20469;-62
2022/01/09 03:48:44;;;;;;;30.67;7.43;;;6.70;99.90;;;;;;4990043;28;20130;-63
2022/01/09 03:51:10;;;;;;;37.95;7.28;;;6.70;99.90;;;;;;4977889;28;20038;-62
2022/01/09 03:53:37;;;;;;;32.28;5.68;;;6.70;99.90;;;;;;4991980;28;20490;-62
2022/01/09 03:56:03;;;;;;;29.10;5.15;;;6.70;99.90;;;;;;4986412;28;20400;-63
2022/01/09 03:58:29;;;;;;;28.73;5.47;;;6.70;99.90;;;;;;4985931;28;22238;-63
2022/01/09 04:00:55;;;;;;;29.67;4.38;;;6.70;99.90;;;;;;4988223;28;20046;-61
2022/01/09 04:03:21;;;;;;;30.05;5.00;;;6.70;99.90;;;;;;4971021;28;20046;-62
2022/01/09 04:05:46;;;;;;;37.00;5.40;;;6.70;99.90;;;;;;4973001;28;20061;-62
2022/01/09 04:08:13;;;;;;;26.95;5.85;;;6.70;99.90;;;;;;4976622;28;20039;-62
2022/01/09 04:10:42;;;;;;;30.90;5.53;;;6.70;99.90;;;;;;4967827;28;20043;-61
2022/01/09 04:13:11;;;;;;;37.47;4.95;;;6.70;99.90;;;;;;4989754;28;20034;-61
2022/01/09 04:15:38;;;;;;;30.60;4.85;;;6.70;99.90;;;;;;4964859;28;20584;-61
2022/01/09 04:18:04;;;;;;;24.27;4.30;;;6.60;99.90;;;;;;4954259;28;20034;-61
2022/01/09 04:20:32;;;;;;;34.58;5.43;;;6.60;99.90;;;;;;4971515;28;20129;-61
2022/01/09 04:22:59;;;;;;;28.15;5.38;;;6.60;99.90;;;;;;4974161;28;20108;-61
2022/01/09 04:25:26;;;;;;;39.15;6.22;;;6.60;99.90;;;;;;4965143;28;20053;-62
2022/01/09 04:27:52;;;;;;;29.13;5.20;;;6.60;99.90;;;;;;4983536;28;20063;-62
2022/01/09 04:30:19;;;;;;;25.67;6.53;;;6.60;99.90;;;;;;4957864;28;20047;-61
2022/01/09 04:32:45;;;;;;;29.77;5.38;;;6.60;99.90;;;;;;4959757;28;20042;-61
2022/01/09 04:35:11;;;;;;;24.90;5.10;;;6.60;99.90;;;;;;4974956;28;20050;-62
2022/01/09 04:37:38;;;;;;;21.98;4.32;;;6.60;99.90;;;;;;4977260;28;20161;-61
2022/01/09 04:40:06;;;;;;;29.42;6.68;;;6.60;99.90;;;;;;4970040;28;20949;-60
2022/01/09 04:42:40;;;;;;;23.08;3.80;;;6.60;99.90;;;;;;4973406;28;20038;-61
2022/01/09 04:45:07;;;;;;;;;;;6.50;99.90;;;;;;4984682;28;20034;-61
2022/01/09 04:47:33;;;;;;;30.60;4.75;;;6.50;99.90;;;;;;4963769;28;19965;-60
2022/01/09 04:49:59;;;;;;;22.08;4.13;;;6.50;99.90;;;;;;4973546;28;20493;-61
2022/01/09 04:52:31;;;;;;;19.55;3.75;;;6.50;99.90;;;;;;4972713;28;20093;-61
2022/01/09 04:54:56;;;;;;;27.90;5.05;;;6.50;99.90;;;;;;4968595;28;20428;-61
2022/01/09 04:57:22;;;;;;;20.15;4.45;;;6.40;99.90;;;;;;4972655;28;20046;-61
2022/01/09 04:59:48;;;;;;;21.35;3.72;;;6.40;99.90;;;;;;4971499;28;20057;-61
2022/01/09 05:02:14;;;;;;;18.50;3.88;;;6.40;99.90;;;;;;4967264;28;20054;-62
2022/01/09 05:04:39;;;;;;;15.48;3.65;;;6.40;99.90;;;;;;4970900;28;20050;-62
2022/01/09 05:07:05;;;;;;;19.05;3.38;;;6.40;99.90;;;;;;4986582;28;20042;-61
2022/01/09 05:09:31;;;;;;;21.08;3.45;;;6.50;99.90;;;;;;4958329;28;20105;-61
2022/01/09 05:11:57;;;;;;;21.90;4.40;;;6.50;99.90;;;;;;4989325;28;20060;-61
2022/01/09 05:14:23;;;;;;;20.15;3.88;;;6.50;99.90;;;;;;4963971;28;20069;-61
2022/01/09 05:16:50;;;;;;;23.52;3.78;;;6.50;99.90;;;;;;4985976;28;20497;-62
2022/01/09 05:19:22;;;;;;;19.08;3.47;;;6.50;99.90;;;;;;4984874;28;20041;-62
2022/01/09 05:21:49;;;;;;;28.45;3.35;;;6.40;99.90;;;;;;4970107;28;20046;-61
2022/01/09 05:24:16;;;;;;;28.60;4.32;;;6.50;99.90;;;;;;4971173;28;20224;-61
2022/01/09 05:26:42;;;;;;;23.25;4.55;;;6.40;99.90;;;;;;4959687;28;20548;-61
2022/01/09 05:29:07;;;;;;;19.20;3.50;;;6.40;99.90;;;;;;4968038;28;20545;-62
2022/01/09 05:31:33;;;;;;;19.08;3.10;;;6.40;99.90;;;;;;4981263;28;20054;-62
2022/01/09 05:33:59;;;;;;;30.90;5.00;;;6.40;99.90;;;;;;4992417;28;20041;-62
2022/01/09 05:36:24;;;;;;;26.52;4.10;;;6.40;99.90;;;;;;4987201;28;20042;-62
2022/01/09 05:38:50;;;;;;;18.42;4.28;;;6.40;99.90;;;;;;4985850;28;20093;-62
2022/01/09 05:41:16;;;;;;;16.80;3.40;;;6.40;99.90;;;;;;4969557;28;20428;-62
2022/01/09 05:43:41;;;;;;;31.08;4.00;;;6.40;99.90;;;;;;4968934;28;20070;-61
2022/01/09 05:46:07;;;;;;;22.05;4.40;;;6.40;99.90;;;;;;4956628;28;20074;-61
2022/01/09 05:48:33;;;;;;;19.02;3.75;;;6.40;99.90;;;;;;4989769;28;20037;-62
2022/01/09 05:50:59;;;;;;;21.88;3.92;;;6.40;99.90;;;;;;4977703;28;20035;-62
2022/01/09 05:53:25;;;;;;;23.27;4.60;;;6.40;99.90;;;;;;4972162;28;20066;-62
2022/01/09 05:55:50;;;;;;;23.50;3.58;;;6.40;99.90;;;;;;4972804;28;20657;-61
2022/01/09 05:58:16;;;;;;;27.48;3.85;;;6.30;99.90;;;;;;4975073;28;20050;-61
2022/01/09 06:00:42;;;;;;;25.08;4.03;;;6.40;99.90;;;;;;4982599;28;20088;-60
2022/01/09 06:03:08;;;;;;;25.80;4.10;;;6.30;99.90;;;;;;4973321;28;20469;-61
2022/01/09 06:05:33;;;;;;;20.05;4.85;;;6.30;99.90;;;;;;4987216;28;20492;-61
2022/01/09 06:07:59;;;;;;;22.80;3.65;;;6.30;99.90;;;;;;4970903;28;20042;-61
2022/01/09 06:10:25;;;;;;;22.80;3.78;;;6.30;99.90;;;;;;4968183;28;20088;-61
2022/01/09 06:12:51;;;;;;;20.20;3.95;;;6.30;99.90;;;;;;4988811;28;20038;-60
2022/01/09 06:15:17;;;;;;;20.90;3.47;;;6.30;99.90;;;;;;4970507;28;20630;-60
2022/01/09 06:17:44;;;;;;;18.25;3.42;;;6.30;99.90;;;;;;4966524;28;20121;-61
2022/01/09 06:20:12;;;;;;;19.88;5.75;;;6.30;99.90;;;;;;4990590;28;20038;-62
2022/01/09 06:22:39;;;;;;;16.55;3.35;;;6.30;99.90;;;;;;4963179;28;20050;-61
2022/01/09 06:25:05;;;;;;;18.60;3.47;;;6.30;99.90;;;;;;4969827;28;20046;-61
2022/01/09 06:27:32;;;;;;;20.95;5.57;;;6.30;99.90;;;;;;4970040;28;20046;-61
2022/01/09 06:29:58;;;;;;;20.77;3.80;;;6.30;99.90;;;;;;4985506;28;20868;-61
2022/01/09 06:32:24;;;;;;;20.25;3.55;;;6.30;99.90;;;;;;4973872;28;20041;-61
2022/01/09 06:34:49;;;;;;;17.23;3.13;;;6.30;99.90;;;;;;4974779;28;20038;-61
2022/01/09 06:37:15;;;;;;;20.80;4.28;;;6.20;99.90;;;;;;4976153;28;20749;-61
2022/01/09 06:39:42;;;;;;;19.83;2.92;;;6.20;99.90;;;;;;4973200;28;20050;-62
2022/01/09 06:42:07;;;;;;;20.10;3.72;;;6.20;99.90;;;;;;4964244;28;20413;-61
2022/01/09 06:44:33;;;;;;;16.02;2.75;;;6.20;99.90;;;;;;4990172;28;20042;-61
2022/01/09 06:46:59;;;;;;;17.33;3.13;;;6.10;99.90;;;;;;4981357;28;20050;-61
2022/01/09 06:49:25;;;;;;;20.02;3.85;;;6.10;99.90;;;;;;4969903;28;20654;-61
2022/01/09 06:51:51;;;;;;;20.10;2.63;;;6.10;99.90;;;;;;4984293;28;20140;-60
2022/01/09 06:54:16;;;;;;;21.70;4.50;;;6.10;99.90;;;;;;5008253;23;20069;-58
2022/01/09 06:56:42;;;;;;;19.05;3.20;;;6.10;99.90;;;;;;5015254;28;20096;-58
2022/01/09 06:59:08;;;;;;;16.85;2.92;;;6.10;99.90;;;;;;5017303;28;20048;-59
2022/01/09 07:01:34;;;;;;;21.63;3.47;;;6.10;99.90;;;;;;5004700;28;20084;-58
2022/01/09 07:04:00;;;;;;;20.05;3.38;;;6.00;99.90;;;;;;5027229;28;20047;-57
2022/01/09 07:06:25;;;;;;;20.58;3.30;;;6.10;99.90;;;;;;5007906;28;20061;-60
2022/01/09 07:08:51;;;;;;;12.80;2.45;;;6.00;99.90;;;;;;5022479;28;20041;-60
2022/01/09 07:11:17;;;;;;;12.52;2.17;;;6.00;99.90;;;;;;5006858;28;20402;-59
2022/01/09 07:13:43;;;;;;;14.48;2.78;;;6.00;99.90;;;;;;5018317;28;20644;-59
2022/01/09 07:16:09;;;;;;;15.55;2.85;;;5.90;99.90;;;;;;5011025;28;20041;-59
2022/01/09 07:18:35;;;;;;;13.25;3.15;;;6.00;99.90;;;;;;5011908;28;20056;-59
2022/01/09 07:21:02;;;;;;;12.35;2.67;;;5.90;99.90;;;;;;5015256;28;20037;-59
2022/01/09 07:23:28;;;;;;;14.02;3.45;;;5.80;99.90;;;;;;5002235;28;20050;-58
2022/01/09 07:25:54;;;;;;;14.77;3.28;;;5.80;99.90;;;;;;5018471;28;20173;-58
2022/01/09 07:28:19;;;;;;;13.15;3.30;;;5.80;99.90;;;;;;5013989;28;20037;-58
2022/01/09 07:30:45;;;;;;;20.40;6.93;;;5.80;99.90;;;;;;5010410;28;20057;-58
2022/01/09 07:33:11;;;;;;;16.48;4.43;;;5.70;99.90;;;;;;5015525;28;20052;-58
2022/01/09 07:35:37;;;;;;;15.85;3.40;;;5.70;99.90;;;;;;5015761;28;20048;-59
2022/01/09 07:38:02;;;;;;;23.63;4.32;;;5.80;99.90;;;;;;5018107;28;20044;-59
2022/01/09 07:40:28;;;;;;;13.80;2.75;;;5.80;99.90;;;;;;5016391;28;20063;-59
2022/01/09 07:42:54;;;;;;;9.23;2.55;;;5.80;99.90;;;;;;5016202;28;20079;-59
2022/01/09 07:45:26;;;;;;;15.18;3.20;;;5.90;99.90;;;;;;4995086;28;20060;-60
2022/01/09 07:47:56;;;;;;;14.57;3.17;;;5.90;99.90;;;;;;5011772;28;20037;-59
2022/01/09 07:50:22;;;;;;;16.55;2.90;;;5.90;99.90;;;;;;5013729;28;20121;-60
2022/01/09 07:52:49;;;;;;;11.70;2.20;;;5.80;99.90;;;;;;5013298;28;20041;-60
2022/01/09 07:55:15;;;;;;;13.95;2.60;;;5.80;99.90;;;;;;5016328;28;20733;-59
2022/01/09 07:57:41;;;;;;;18.42;3.70;;;5.80;99.90;;;;;;5012454;28;20044;-59
2022/01/09 08:00:10;;;;;;;13.50;2.42;;;5.80;99.90;;;;;;4996127;28;20130;-59
2022/01/09 08:02:36;;;;;;;12.60;2.33;;;5.80;99.90;;;;;;5016394;28;20049;-59
2022/01/09 08:05:02;;;;;;;17.85;2.85;;;5.80;99.90;;;;;;5012707;28;20088;-58
2022/01/09 08:07:28;;;;;;;25.67;4.05;;;5.80;99.90;;;;;;5004650;28;20042;-59
2022/01/09 08:09:54;;;;;;;17.48;2.75;;;5.80;99.90;;;;;;4988145;28;20033;-58
2022/01/09 08:12:19;;;;;;;13.88;2.45;;;5.80;99.90;;;;;;5002667;28;20073;-59
2022/01/09 08:14:45;;;;;;;15.60;2.00;;;5.80;99.90;;;;;;5006882;28;20492;-59
2022/01/09 08:17:12;;;;;;;14.13;2.63;;;5.80;99.90;;;;;;5006431;28;20099;-58
2022/01/09 08:19:38;;;;;;;16.02;2.88;;;5.80;99.90;;;;;;5004591;28;20049;-59
2022/01/09 08:22:06;;;;;;;15.10;2.53;;;5.70;99.90;;;;;;5007518;28;20060;-58
2022/01/09 08:24:33;;;;;;;17.85;3.97;;;5.70;99.90;;;;;;5016384;28;20041;-59
2022/01/09 08:26:59;;;;;;;18.55;2.75;;;5.80;99.90;;;;;;5019764;28;20128;-59
2022/01/09 08:29:25;;;;;;;17.13;3.13;;;5.80;99.90;;;;;;4998906;28;20061;-58
2022/01/09 08:31:50;;;;;;;18.05;2.90;;;5.80;99.90;;;;;;5016300;28;20132;-58
2022/01/09 08:34:16;;;;;;;15.95;2.80;;;5.80;99.90;;;;;;5010290;28;20041;-60
2022/01/09 08:36:42;;;;;;;12.27;2.65;;;5.80;99.90;;;;;;5015705;28;20033;-58
2022/01/09 08:39:10;;;;;;;9.10;2.08;;;5.80;99.90;;;;;;4995277;28;20843;-59
2022/01/09 08:41:36;;;;;;;10.55;1.83;;;5.90;99.90;;;;;;5013815;28;20049;-58
2022/01/09 08:44:04;;;;;;;15.02;2.63;;;5.80;99.90;;;;;;5017663;28;20056;-58
2022/01/09 08:46:34;;;;;;;14.68;2.55;;;5.80;99.90;;;;;;4994898;28;20033;-59
2022/01/09 08:49:01;;;;;;;12.55;3.08;;;5.80;99.90;;;;;;4999654;28;20033;-59
2022/01/09 08:51:28;;;;;;;13.07;2.20;;;5.80;99.90;;;;;;5002084;28;20049;-60
2022/01/09 08:53:54;;;;;;;9.50;2.20;;;5.80;99.90;;;;;;4979836;28;20045;-58
2022/01/09 08:56:22;;;;;;;17.02;2.28;;;5.70;99.90;;;;;;4999931;28;20523;-59
2022/01/09 08:58:49;;;;;;;12.48;2.20;;;5.80;99.90;;;;;;5006290;28;20641;-58
2022/01/09 09:01:15;;;;;;;9.88;2.13;;;5.80;99.90;;;;;;5003427;28;20045;-59
2022/01/09 09:03:41;;;;;;;13.65;2.28;;;5.80;99.90;;;;;;5005943;28;20037;-59
2022/01/09 09:06:12;;;;;;;11.98;3.05;;;5.80;99.90;;;;;;5005252;28;20107;-58
2022/01/09 09:08:39;;;;;;;13.55;4.00;;;5.80;99.90;;;;;;5001138;28;20037;-59
2022/01/09 09:11:06;;;;;;;30.25;9.73;;;5.70;99.90;;;;;;5001185;28;20048;-59
2022/01/09 09:13:33;;;;;;;23.25;11.18;;;5.80;99.90;;;;;;5012232;28;20037;-59
2022/01/09 09:15:59;;;;;;;15.52;7.18;;;5.70;99.90;;;;;;5010120;28;20056;-59
2022/01/09 09:18:25;;;;;;;16.17;4.95;;;5.80;99.90;;;;;;5002647;28;20022;-58
2022/01/09 09:20:50;;;;;;;15.68;3.25;;;5.70;99.90;;;;;;5011613;28;20490;-59
2022/01/09 09:23:17;;;;;;;14.93;2.85;;;5.70;99.90;;;;;;5015877;28;20037;-58
2022/01/09 09:25:42;;;;;;;9.05;3.28;;;5.70;99.90;;;;;;5018988;28;20491;-59
2022/01/09 09:28:08;;;;;;;12.45;3.42;;;5.60;99.90;;;;;;5019657;28;20053;-59
2022/01/09 09:30:36;;;;;;;12.43;2.35;;;5.50;99.90;;;;;;5015468;28;20873;-59
2022/01/09 09:33:03;;;;;;;14.35;2.88;;;5.60;99.90;;;;;;5014101;28;20041;-59
2022/01/09 09:35:29;;;;;;;11.98;3.03;;;5.60;99.90;;;;;;5014306;28;20392;-59
2022/01/09 09:37:55;;;;;;;11.85;2.30;;;5.50;99.90;;;;;;5018081;28;20034;-59
2022/01/09 09:40:21;;;;;;;16.42;2.35;;;5.50;99.90;;;;;;5017865;28;20540;-59
2022/01/09 09:42:46;;;;;;;27.27;4.55;;;5.50;99.90;;;;;;5012560;28;20041;-59
2022/01/09 09:45:13;;;;;;;13.70;2.80;;;5.60;99.90;;;;;;5015129;28;20517;-59
2022/01/09 09:47:40;;;;;;;9.70;2.58;;;5.60;99.90;;;;;;5003053;28;20049;-58
2022/01/09 09:50:09;;;;;;;13.25;2.22;;;5.60;99.90;;;;;;5015403;28;21019;-59
2022/01/09 09:52:34;;;;;;;10.85;1.90;;;5.70;99.90;;;;;;5017791;28;20045;-59
2022/01/09 09:55:00;;;;;;;14.43;2.80;;;5.70;99.90;;;;;;4998096;28;20063;-60
2022/01/09 09:57:27;;;;;;;13.75;2.13;;;5.70;99.90;;;;;;5019033;28;20033;-58
2022/01/09 10:00:20;;;;;;;11.05;2.08;;;5.80;99.90;;;;;;5015778;28;20151;-59
2022/01/09 10:02:46;;;;;;;11.35;2.15;;;5.80;99.90;;;;;;5013886;28;20048;-58
2022/01/09 10:05:13;;;;;;;9.20;1.90;;;5.80;99.90;;;;;;5017085;28;20130;-59
2022/01/09 10:07:39;;;;;;;12.18;1.73;;;5.80;99.90;;;;;;5015145;28;20037;-58
2022/01/09 10:10:09;;;;;;;12.13;2.40;;;5.70;99.90;;;;;;5004226;28;20111;-57
2022/01/09 10:12:36;;;;;;;12.50;3.15;;;5.70;99.90;;;;;;5020379;28;20403;-57
2022/01/09 10:15:07;;;;;;;15.05;3.08;;;5.80;99.90;;;;;;5013098;28;20078;-57
2022/01/09 10:17:34;;;;;;;11.65;2.65;;;5.80;99.90;;;;;;4996173;28;20068;-58
2022/01/09 10:20:20;;;;;;;12.32;2.33;;;5.80;99.90;;;;;;5019261;28;20045;-58
2022/01/09 10:22:47;;;;;;;11.20;3.20;;;5.90;99.90;;;;;;5012229;28;20049;-57
2022/01/09 10:25:35;;;;;;;17.95;4.30;;;5.90;99.90;;;;;;5013349;28;20148;-57
2022/01/09 10:28:16;;;;;;;11.38;3.05;;;5.90;99.90;;;;;;5018583;28;20256;-58
2022/01/09 10:30:52;;;;;;;10.30;2.35;;;6.00;99.90;;;;;;5021991;28;20124;-58
2022/01/09 10:33:23;;;;;;;12.32;2.70;;;6.00;99.90;;;;;;5015168;28;20034;-58
2022/01/09 10:35:50;;;;;;;13.07;2.78;;;6.00;99.90;;;;;;5018217;28;20051;-58
2022/01/09 10:38:22;;;;;;;12.32;4.47;;;6.00;99.90;;;;;;5016019;28;20048;-58
2022/01/09 10:41:08;;;;;;;11.32;2.55;;;6.10;99.90;;;;;;5018393;28;20091;-58
2022/01/09 10:43:36;;;;;;;14.95;2.65;;;6.10;99.90;;;;;;5016926;28;20038;-58
2022/01/09 10:46:02;;;;;;;14.30;3.05;;;6.10;99.90;;;;;;5016837;28;20037;-59
2022/01/09 10:48:37;;;;;;;14.35;3.50;;;6.20;99.90;;;;;;5016874;28;20069;-57
2022/01/09 10:51:05;;;;;;;18.48;3.60;;;6.20;99.90;;;;;;5012345;28;20064;-58
2022/01/09 10:53:32;;;;;;;20.38;3.30;;;6.30;99.90;;;;;;5017939;28;20511;-58
2022/01/09 10:56:08;;;;;;;16.92;3.47;;;6.40;99.90;;;;;;5010928;28;20040;-57
2022/01/09 10:59:03;;;;;;;14.73;5.40;;;6.50;99.90;;;;;;5017013;28;20127;-57
2022/01/09 11:01:32;;;;;;;;;;;6.60;99.90;;;;;;5013465;28;20140;-59
2022/01/09 11:04:06;;;;;;;21.30;4.10;;;6.80;99.90;;;;;;5016706;28;19925;-59
2022/01/09 11:06:34;;;;;;;13.07;3.10;;;6.90;99.90;;;;;;5013804;28;20047;-58
2022/01/09 11:09:03;;;;;;;16.35;2.92;;;7.10;99.90;;;;;;5018742;28;20518;-58
2022/01/09 11:11:34;;;;;;;15.60;3.30;;;7.10;99.90;;;;;;4985701;28;20140;-59
2022/01/09 11:14:03;;;;;;;10.75;3.03;;;7.20;99.90;;;;;;5013615;28;20068;-59
2022/01/09 11:16:33;;;;;;;14.13;2.63;;;7.30;99.90;;;;;;5018784;28;20052;-58
2022/01/09 11:19:06;;;;;;;14.18;3.17;;;7.30;99.90;;;;;;5004682;28;20038;-59
2022/01/09 11:21:33;;;;;;;10.32;2.83;;;7.30;99.90;;;;;;5013422;28;20116;-58
2022/01/09 11:24:01;;;;;;;14.73;2.60;;;7.20;99.90;;;;;;4998974;28;20079;-59
2022/01/09 11:26:47;;;;;;;13.35;3.10;;;7.10;99.90;;;;;;5012842;28;20613;-58
2022/01/09 11:29:19;;;;;;;11.45;2.42;;;7.20;99.90;;;;;;5019864;28;20041;-58
2022/01/09 11:32:21;;;;;;;11.50;2.05;;;7.30;99.90;;;;;;5010723;28;20041;-59
2022/01/09 11:34:50;;;;;;;16.02;2.25;;;7.40;99.90;;;;;;5009620;28;20383;-59
2022/01/09 11:37:19;;;;;;;14.82;2.72;;;7.40;99.90;;;;;;5007847;28;21969;-58
2022/01/09 11:39:44;;;;;;;18.73;3.30;;;7.50;99.90;;;;;;4996263;28;20080;-58
2022/01/09 11:42:12;;;;;;;11.85;2.65;;;7.50;99.90;;;;;;5011740;28;20064;-58
2022/01/09 11:44:53;;;;;;;16.88;3.28;;;7.50;99.90;;;;;;5009241;28;20124;-57
2022/01/09 11:47:21;;;;;;;10.13;1.95;;;7.50;99.90;;;;;;5012769;28;20787;-58
2022/01/09 11:49:52;;;;;;;12.38;2.13;;;7.50;99.90;;;;;;5008796;28;20037;-57
2022/01/09 11:52:18;;;;;;;9.00;1.80;;;7.60;99.90;;;;;;4997231;28;20057;-58
2022/01/09 11:54:52;;;;;;;12.55;2.80;;;7.60;99.90;;;;;;4991615;28;20033;-59
2022/01/09 11:57:46;;;;;;;14.77;2.67;;;7.50;99.90;;;;;;5013627;28;20041;-58
2022/01/09 12:00:34;;;;;;;14.52;3.90;;;7.40;99.90;;;;;;5011126;28;20050;-58
2022/01/09 12:03:21;;;;;;;15.88;3.50;;;7.20;99.90;;;;;;5018632;28;20041;-57
2022/01/09 12:06:00;;;;;;;12.65;3.80;;;7.20;99.90;;;;;;5015071;28;20041;-58
2022/01/09 12:08:26;;;;;;;14.75;3.53;;;7.30;99.90;;;;;;5018729;28;20052;-59
2022/01/09 12:10:53;;;;;;;15.45;4.78;;;7.40;99.90;;;;;;5012378;28;20037;-58
2022/01/09 12:13:41;;;;;;;16.58;4.60;;;7.50;99.90;;;;;;5018282;28;20072;-57
2022/01/09 12:16:08;;;;;;;19.45;4.88;;;7.50;99.90;;;;;;5016358;28;20433;-58
2022/01/09 12:18:45;;;;;;;15.65;6.93;;;7.50;99.90;;;;;;4998178;28;20443;-58
2022/01/09 12:21:37;;;;;;;12.75;4.22;;;7.50;99.90;;;;;;5019365;28;20049;-59
2022/01/09 12:24:36;;;;;;;10.60;3.80;;;7.30;99.90;;;;;;5005416;28;20049;-58
2022/01/09 12:27:42;;;;;;;13.73;3.22;;;7.20;99.90;;;;;;4980952;28;20049;-58
2022/01/09 12:30:10;;;;;;;16.48;6.03;;;7.00;99.90;;;;;;5012545;28;20139;-58
2022/01/09 12:32:43;;;;;;;8.30;2.80;;;6.90;99.90;;;;;;5019606;28;20391;-58
2022/01/09 12:35:19;;;;;;;;;;;6.90;99.90;;;;;;5018169;28;20684;-59
2022/01/09 12:37:53;;;;;;;11.73;3.20;;;6.90;99.90;;;;;;5017193;28;19963;-59
2022/01/09 12:40:21;;;;;;;8.90;1.85;;;6.90;99.90;;;;;;5001219;28;20375;-59
2022/01/09 12:42:50;;;;;;;8.57;2.20;;;6.80;99.90;;;;;;4996781;28;20103;-58
2022/01/09 12:45:21;;;;;;;9.00;3.33;;;6.70;99.90;;;;;;5002044;28;20045;-57
2022/01/09 12:47:48;;;;;;;9.25;1.85;;;6.70;99.90;;;;;;5000331;28;20095;-59
2022/01/09 12:50:14;;;;;;;10.48;1.60;;;6.60;99.90;;;;;;5019508;28;20044;-57
2022/01/09 12:52:40;;;;;;;11.73;3.72;;;6.60;99.90;;;;;;5011869;28;20091;-58